Fair View, Colorado
Current Conditions -  °F | °C
As of 8:53 PM on Thursday 20 Nov 2014 (Local Time) from KLHX Reporting Station
Few Clouds Few Clouds  
Wind Chill: 27°   Ceiling: Unl
Heat Index: 35°   Visibility: 10mi
Dew Point: 29°   Wind: 10mph
Humidity: 78%   Direction: 90°E
Pressure: 30"   Gusts: NA
Location:  37.8368°N, 103.544°W
Report Text: KLHX 210353Z AUTO 09009KT 10SM FEW120 02/M02 A3000 RMK AO2 SLP163 T00171017
Loading
Personal Weather Stations






























Interactive Weather Map New forecast layout! Learn more

10-Day Weather Forecast

Advertisements
Track Severe Weather on mobile